KARV/ARV METAR and TAF weather

Enter ICAO airport designator
Station Type Date Time Source
KARV METAR 2019/04/18 20:15 UTC NOAA

KARV 182015Z AUTO 36014G19KT 10SM OVC008 04/03 A2975 RMK AO2 T00400027


Station Type Date Time Source
KARV Decoded METAR 2019/04/18 20:15 UTC NOAA

Minocqua/Woodruff, Lakeland Airport/Noble F. Lee Memorial Field, WI, United States (KARV) 45-56N 089-44W
Apr 18, 2019 - 04:15 PM EDT / 2019.04.18 2015 UTC
Wind: from the N (360 degrees) at 16 MPH (14 KT) gusting to 22 MPH (19 KT):0
Visibility: 10 mile(s):0
Sky conditions: overcast
Temperature: 39.2 F (4.0 C)
Dew Point: 36.9 F (2.7 C)
Relative Humidity: 91%
Pressure (altimeter): 29.75 in. Hg (1007 hPa)
ob: KARV 182015Z AUTO 36014G19KT 10SM OVC008 04/03 A2975 RMK AO2 T00400027
cycle: 20

Station Type Date Time Source
KARV TAF UTC NOAA

Error!

Example: see airport list